Time;durP1;ratioP1;P1;durP2;ratioP2;P2;SDS_P1;SDS_P2;PMS_P1;PMS_P2;Temp;Humidity;BMP_temperature;BMP_pressure;BME280_temperature;BME280_humidity;BME280_pressure;Samples;Min_cycle;Max_cycle;Signal;HPM_P1;HPM_P2
2021/04/19 00:00:16;;;;;;;4.47;4.00;;;;;;;11.77;65.30;99834.59;5273578;27;33972;-77
2021/04/19 00:02:46;;;;;;;5.35;3.33;;;;;;;11.64;65.67;99842.94;5273639;27;33340;-78
2021/04/19 00:05:16;;;;;;;4.70;2.55;;;;;;;11.53;65.98;99839.63;5292021;27;33775;-78
2021/04/19 00:07:44;;;;;;;4.22;3.15;;;;;;;11.44;66.30;99838.69;5273853;27;35428;-78
2021/04/19 00:10:14;;;;;;;6.97;3.58;;;;;;;11.52;66.19;99837.94;5291583;27;34466;-77
2021/04/19 00:12:42;;;;;;;3.22;2.58;;;;;;;11.63;66.09;99824.47;5291306;27;35427;-78
2021/04/19 00:15:11;;;;;;;2.70;2.50;;;;;;;11.56;66.53;99828.66;5273803;27;34508;-77
2021/04/19 00:17:39;;;;;;;2.80;2.60;;;;;;;11.84;65.30;99820.50;5291562;27;34722;-77
2021/04/19 00:20:06;;;;;;;;;;;;;;;11.42;66.70;99822.03;5274058;27;35521;-77
2021/04/19 00:22:35;;;;;;;2.15;1.85;;;;;;;11.41;67.07;99819.50;5274003;27;33227;-77
2021/04/19 00:25:03;;;;;;;4.53;2.97;;;;;;;11.27;67.29;99816.50;5291253;27;34704;-77
2021/04/19 00:27:31;;;;;;;3.45;2.83;;;;;;;11.24;67.43;99814.97;5291763;27;35065;-76
2021/04/19 00:29:59;;;;;;;;;;;;;;;11.00;68.80;99820.00;5292131;27;33696;-77
2021/04/19 00:32:27;;;;;;;4.15;3.60;;;;;;;11.27;67.79;99819.16;5273669;27;32958;-77
2021/04/19 00:34:55;;;;;;;4.12;3.50;;;;;;;11.15;67.88;99818.50;5291654;27;33657;-77
2021/04/19 00:37:23;;;;;;;4.72;4.05;;;;;;;11.22;67.87;99819.59;5311661;27;34956;-76
2021/04/19 00:39:50;;;;;;;5.73;3.73;;;;;;;11.02;68.81;99815.34;5311664;27;34309;-77
2021/04/19 00:42:17;;;;;;;4.00;2.23;;;;;;;11.12;68.38;99818.81;5291675;27;33213;-76
2021/04/19 00:44:45;;;;;;;;;;;;;;;11.24;68.09;99814.12;5273802;27;33661;-76
2021/04/19 00:47:14;;;;;;;4.05;3.20;;;;;;;11.38;67.46;99814.47;5291996;27;35670;-77
2021/04/19 00:49:42;;;;;;;3.92;2.97;;;;;;;11.18;68.23;99812.91;5291275;27;34760;-76
2021/04/19 00:52:10;;;;;;;4.78;3.37;;;;;;;11.21;68.11;99811.78;5311436;27;33877;-77
2021/04/19 00:54:37;;;;;;;5.97;3.72;;;;;;;11.12;68.44;99808.16;5291202;27;33462;-76
2021/04/19 00:57:05;;;;;;;4.97;4.37;;;;;;;11.24;67.89;99808.81;5273017;27;36059;-78
2021/04/19 00:59:33;;;;;;;4.53;3.92;;;;;;;11.09;68.52;99804.94;5290906;27;34676;-77
2021/04/19 01:02:04;;;;;;;4.97;3.40;;;;;;;11.16;68.34;99803.37;5291755;27;33163;-77
2021/04/19 01:04:32;;;;;;;5.20;3.65;;;;;;;11.32;67.28;99801.75;5291079;27;33878;-78
2021/04/19 01:07:01;;;;;;;4.72;4.25;;;;;;;11.48;66.68;99808.13;5291264;27;35138;-77
2021/04/19 01:09:29;;;;;;;2.72;2.50;;;;;;;11.16;67.82;99812.22;5272947;27;35017;-77
2021/04/19 01:11:57;;;;;;;3.72;3.33;;;;;;;11.21;67.78;99806.44;5291351;27;33248;-76
2021/04/19 01:14:27;;;;;;;7.62;4.72;;;;;;;11.07;68.32;99809.59;5310992;27;33978;-77
2021/04/19 01:16:56;;;;;;;4.12;3.72;;;;;;;10.73;69.44;99803.97;5291910;27;35559;-77
2021/04/19 01:19:26;;;;;;;;;;;;;;;11.05;68.50;99808.91;5290703;27;33411;-77
2021/04/19 01:21:53;;;;;;;6.07;4.15;;;;;;;11.23;67.97;99804.47;5291730;27;33235;-77
2021/04/19 01:24:21;;;;;;;4.00;3.08;;;;;;;11.14;68.13;99802.69;5290967;27;33007;-77
2021/04/19 01:26:48;;;;;;;5.00;3.12;;;;;;;10.89;69.14;99806.00;5291325;27;35046;-77
2021/04/19 01:29:17;;;;;;;5.95;4.55;;;;;;;10.99;68.86;99815.66;5291316;27;33936;-77
2021/04/19 01:31:46;;;;;;;8.48;5.10;;;;;;;11.11;68.09;99803.00;5291419;27;34184;-77
2021/04/19 01:34:16;;;;;;;4.45;3.58;;;;;;;11.33;67.16;99800.75;5291805;27;33639;-76
2021/04/19 01:36:47;;;;;;;4.55;3.35;;;;;;;11.27;67.30;99800.50;5273390;27;35866;-78
2021/04/19 01:39:17;;;;;;;10.60;4.00;;;;;;;11.03;67.97;99795.72;5291313;27;34849;-76
2021/04/19 01:41:47;;;;;;;7.57;5.03;;;;;;;11.10;67.96;99806.62;5291090;27;35339;-77
2021/04/19 01:44:15;;;;;;;3.45;3.15;;;;;;;11.02;68.31;99798.56;5274174;27;33569;-78
2021/04/19 01:46:44;;;;;;;7.10;3.60;;;;;;;11.19;67.86;99803.94;5291838;27;35153;-78
2021/04/19 01:49:16;;;;;;;8.10;4.95;;;;;;;10.88;68.93;99801.69;5311077;27;35032;-78
2021/04/19 01:51:46;;;;;;;3.80;3.03;;;;;;;11.11;68.17;99806.47;5291515;27;34642;-78
2021/04/19 01:54:16;;;;;;;5.75;4.12;;;;;;;11.03;68.03;99800.22;5274061;27;33796;-77
2021/04/19 01:56:44;;;;;;;5.10;3.10;;;;;;;10.98;68.83;99808.66;5291802;27;35712;-76
2021/04/19 01:59:13;;;;;;;3.92;3.62;;;;;;;10.98;68.60;99802.47;5291257;27;35866;-77
2021/04/19 02:02:15;;;;;;;4.72;3.00;;;;;;;10.89;69.30;99809.53;5272790;27;33768;-77
2021/04/19 02:04:53;;;;;;;6.43;4.45;;;;;;;11.09;68.27;99796.97;5273384;27;34235;-78
2021/04/19 02:07:48;;;;;;;4.85;3.70;;;;;;;10.89;69.04;99800.69;5292047;27;34702;-77
2021/04/19 02:10:26;;;;;;;8.70;5.50;;;;;;;11.02;68.89;99798.56;5311136;27;35312;-76
2021/04/19 02:13:02;;;;;;;10.13;4.95;;;;;;;10.78;70.14;99799.06;5272819;27;33915;-78
2021/04/19 02:15:55;;;;;;;7.10;4.85;;;;;;;11.06;68.84;99797.25;5273631;27;34370;-77
2021/04/19 02:18:49;;;;;;;3.35;2.97;;;;;;;11.10;68.54;99793.31;5273270;27;35614;-77
2021/04/19 02:21:42;;;;;;;3.95;3.08;;;;;;;10.86;69.48;99803.66;5293965;27;34651;-77
2021/04/19 02:24:14;;;;;;;4.12;3.72;;;;;;;10.82;69.74;99797.78;5273685;27;34143;-77
2021/04/19 02:27:03;;;;;;;4.85;4.22;;;;;;;11.16;68.52;99792.72;5273156;27;33475;-78
2021/04/19 02:29:37;;;;;;;7.68;5.05;;;;;;;10.95;69.49;99795.63;5291195;27;35569;-77
2021/04/19 02:32:09;;;;;;;5.28;4.50;;;;;;;11.24;68.42;99795.50;5291069;27;34970;-76
2021/04/19 02:34:38;;;;;;;6.60;4.30;;;;;;;11.10;68.63;99791.50;5273388;27;33313;-77
2021/04/19 02:37:08;;;;;;;4.60;3.58;;;;;;;11.02;69.05;99791.38;5255067;27;35187;-77
2021/04/19 02:39:40;;;;;;;6.03;4.32;;;;;;;11.32;67.85;99790.25;5291285;27;35413;-78
2021/04/19 02:42:12;;;;;;;5.30;3.30;;;;;;;11.25;68.07;99797.16;5274022;27;34883;-78
2021/04/19 02:44:40;;;;;;;4.97;3.85;;;;;;;11.05;68.91;99788.41;5291309;27;33045;-78
2021/04/19 02:47:10;;;;;;;7.97;5.03;;;;;;;10.88;69.69;99791.88;5291560;27;35303;-76
2021/04/19 02:49:40;;;;;;;5.20;3.42;;;;;;;11.32;68.06;99787.59;5291848;27;34816;-77
2021/04/19 02:52:08;;;;;;;5.95;4.87;;;;;;;11.13;68.75;99790.38;5273290;27;34207;-77
2021/04/19 02:54:44;;;;;;;5.30;4.72;;;;;;;11.20;68.62;99788.78;5274266;27;34538;-78
2021/04/19 02:57:29;;;;;;;5.07;4.03;;;;;;;11.24;68.45;99785.66;5273236;27;33655;-78
2021/04/19 02:59:59;;;;;;;6.18;3.85;;;;;;;11.28;68.25;99782.56;5272521;27;37460;-78
2021/04/19 03:02:32;;;;;;;8.93;5.55;;;;;;;11.35;67.92;99777.50;5274339;27;35287;-77
2021/04/19 03:05:00;;;;;;;;;;;;;;;11.50;67.13;99779.50;5273503;27;32880;-77
2021/04/19 03:07:32;;;;;;;4.30;2.65;;;;;;;11.28;67.92;99781.72;5291122;27;33935;-77
2021/04/19 03:10:08;;;;;;;8.13;4.57;;;;;;;11.42;67.25;99776.72;5272072;27;35385;-77
2021/04/19 03:12:38;;;;;;;6.05;5.12;;;;;;;11.46;67.17;99775.44;5291326;27;34084;-77
2021/04/19 03:15:12;;;;;;;10.43;5.25;;;;;;;11.24;67.71;99780.34;5274445;27;33384;-77
2021/04/19 03:17:40;;;;;;;10.38;6.10;;;;;;;11.19;68.23;99774.63;5273787;27;32692;-78
2021/04/19 03:20:14;;;;;;;5.40;4.00;;;;;;;10.96;69.14;99791.16;5291736;27;36363;-78
2021/04/19 03:22:45;;;;;;;4.78;4.32;;;;;;;11.03;68.91;99777.09;5292182;27;34923;-77
2021/04/19 03:25:13;;;;;;;3.03;2.83;;;;;;;10.98;68.89;99778.53;5291964;27;32917;-77
2021/04/19 03:27:44;;;;;;;6.70;6.05;;;;;;;10.72;70.12;99783.69;5273966;27;34489;-77
2021/04/19 03:30:14;;;;;;;5.22;3.80;;;;;;;10.87;69.45;99782.19;5291837;27;36004;-78
2021/04/19 03:32:48;;;;;;;7.35;5.87;;;;;;;10.68;69.80;99784.12;5274019;27;34365;-77
2021/04/19 03:35:23;;;;;;;7.90;4.28;;;;;;;10.95;69.20;99781.50;5274169;27;33736;-78
2021/04/19 03:37:52;;;;;;;8.43;6.03;;;;;;;10.84;69.57;99784.34;5274504;27;33562;-78
2021/04/19 03:40:28;;;;;;;4.28;3.55;;;;;;;10.51;70.57;99785.72;5273893;27;35891;-78
2021/04/19 03:43:05;;;;;;;5.45;4.10;;;;;;;10.42;71.11;99789.22;5292159;27;35414;-77
2021/04/19 03:45:35;;;;;;;5.60;4.05;;;;;;;10.45;70.92;99788.09;5273987;27;33137;-77
2021/04/19 03:48:20;;;;;;;10.45;4.10;;;;;;;10.59;70.40;99785.81;5275595;27;33576;-77
2021/04/19 03:50:59;;;;;;;7.47;5.68;;;;;;;10.50;70.44;99778.72;5274387;27;35695;-78
2021/04/19 03:53:28;;;;;;;4.07;3.33;;;;;;;10.25;71.44;99784.62;5291688;27;35062;-77
2021/04/19 03:55:58;;;;;;;4.82;4.30;;;;;;;10.10;72.39;99793.19;5273723;27;33266;-76
2021/04/19 03:58:29;;;;;;;7.72;4.70;;;;;;;10.33;71.42;99791.91;5273508;27;35456;-78
2021/04/19 04:00:59;;;;;;;5.62;4.07;;;;;;;10.36;71.39;99784.47;5291593;27;35090;-76
2021/04/19 04:03:30;;;;;;;9.57;4.60;;;;;;;10.15;72.06;99786.47;5274018;27;36304;-77
2021/04/19 04:06:00;;;;;;;9.82;6.18;;;;;;;10.38;71.14;99782.50;5273954;27;32879;-77
2021/04/19 04:08:30;;;;;;;7.53;5.57;;;;;;;10.30;71.76;99789.53;5274256;27;34149;-77
2021/04/19 04:10:58;;;;;;;6.70;3.95;;;;;;;10.22;72.17;99790.25;5273596;27;35636;-77
2021/04/19 04:13:29;;;;;;;7.07;5.07;;;;;;;10.19;72.38;99793.16;5291917;27;34050;-76
2021/04/19 04:15:58;;;;;;;9.07;6.47;;;;;;;9.89;73.07;99793.31;5273775;27;33743;-76
2021/04/19 04:18:26;;;;;;;4.72;3.83;;;;;;;10.10;72.69;99790.53;5273280;27;34537;-77
2021/04/19 04:20:56;;;;;;;8.43;4.18;;;;;;;10.11;72.02;99793.03;5274257;27;35186;-77
2021/04/19 04:23:23;;;;;;;5.30;4.22;;;;;;;10.28;71.78;99797.63;5273480;27;34832;-77
2021/04/19 04:25:53;;;;;;;3.53;2.92;;;;;;;10.34;71.42;99794.41;5292137;27;33110;-77
2021/04/19 04:28:23;;;;;;;6.50;5.95;;;;;;;10.44;70.42;99794.38;5292154;27;33792;-76
2021/04/19 04:30:52;;;;;;;3.80;3.00;;;;;;;10.22;71.10;99798.22;5273953;27;35472;-76
2021/04/19 04:33:19;;;;;;;10.30;4.05;;;;;;;10.06;71.87;99791.78;5291822;27;34610;-77
2021/04/19 04:35:47;;;;;;;3.83;3.53;;;;;;;10.32;70.98;99798.19;5273800;27;32927;-77
2021/04/19 04:38:15;;;;;;;11.57;6.80;;;;;;;10.33;70.98;99791.91;5311225;27;34284;-78
2021/04/19 04:40:44;;;;;;;6.65;5.93;;;;;;;10.22;71.49;99802.69;5311826;27;35362;-77
2021/04/19 04:43:16;;;;;;;3.87;3.35;;;;;;;10.18;71.19;99790.69;5273719;27;35501;-76
2021/04/19 04:45:44;;;;;;;10.00;7.07;;;;;;;9.69;73.13;99804.06;5291885;27;33678;-77
2021/04/19 04:48:19;;;;;;;5.70;3.90;;;;;;;9.85;72.64;99791.91;5291929;27;34213;-77
2021/04/19 04:51:02;;;;;;;7.55;6.47;;;;;;;9.59;73.59;99793.44;5291540;27;34743;-77
2021/04/19 04:53:36;;;;;;;4.50;4.07;;;;;;;10.02;72.32;99796.53;5273404;27;34487;-78
2021/04/19 04:56:07;;;;;;;4.87;4.32;;;;;;;10.03;71.99;99795.56;5291976;27;33150;-76
2021/04/19 04:58:43;;;;;;;3.78;3.40;;;;;;;10.19;70.95;99803.81;5292689;27;33879;-78
2021/04/19 05:01:12;;;;;;;7.05;3.90;;;;;;;10.28;70.71;99802.13;5291242;27;35963;-79
2021/04/19 05:03:40;;;;;;;5.68;3.58;;;;;;;10.15;70.85;99804.22;5273443;27;33340;-76
2021/04/19 05:06:17;;;;;;;4.62;3.62;;;;;;;9.98;71.52;99805.75;5275759;27;33074;-79
2021/04/19 05:08:45;;;;;;;5.40;3.85;;;;;;;9.89;71.75;99809.25;5291302;27;33316;-77
2021/04/19 05:11:14;;;;;;;5.12;4.37;;;;;;;9.85;72.40;99807.88;5291150;27;35410;-77
2021/04/19 05:13:42;;;;;;;4.37;4.00;;;;;;;9.77;72.55;99806.84;5273241;27;34121;-77
2021/04/19 05:16:10;;;;;;;5.60;5.07;;;;;;;10.08;71.90;99797.78;5311525;27;34121;-77
2021/04/19 05:18:38;;;;;;;8.68;5.50;;;;;;;9.98;72.19;99803.09;5292044;27;33983;-77
2021/04/19 05:21:08;;;;;;;12.85;4.95;;;;;;;10.34;70.56;99804.19;5291196;27;34948;-76
2021/04/19 05:23:36;;;;;;;4.85;3.10;;;;;;;10.24;70.61;99809.56;5266795;27;34868;-78
2021/04/19 05:26:05;;;;;;;4.82;3.15;;;;;;;10.02;71.53;99804.50;5251665;27;32316;-77
2021/04/19 05:28:33;;;;;;;7.05;5.00;;;;;;;10.29;71.25;99801.97;5308232;27;33364;-79
2021/04/19 05:31:11;;;;;;;7.75;5.70;;;;;;;10.39;70.74;99804.63;5268758;27;35531;-77
2021/04/19 05:33:39;;;;;;;4.07;3.67;;;;;;;10.49;69.97;99805.44;5288417;27;33770;-77
2021/04/19 05:36:08;;;;;;;;;;;;;;;10.63;69.95;99805.81;5271294;27;34194;-78
2021/04/19 05:38:44;;;;;;;6.20;4.80;;;;;;;10.69;69.85;99802.59;5273543;27;35008;-76
2021/04/19 05:41:15;;;;;;;4.50;3.85;;;;;;;10.69;69.62;99801.75;5274856;27;34849;-76
2021/04/19 05:43:44;;;;;;;16.87;5.50;;;;;;;10.92;68.19;99806.56;5273610;27;35029;-76
2021/04/19 05:46:12;;;;;;;6.00;4.40;;;;;;;10.45;69.01;99809.34;5273807;27;34094;-77
2021/04/19 05:48:41;;;;;;;4.45;3.90;;;;;;;10.02;70.76;99806.31;5311615;27;33728;-77
2021/04/19 05:51:23;;;;;;;7.75;3.58;;;;;;;10.22;70.72;99808.88;5311486;27;35708;-77
2021/04/19 05:53:53;;;;;;;3.50;3.15;;;;;;;10.38;69.02;99814.41;5273267;27;34227;-76
2021/04/19 05:56:30;;;;;;;3.78;3.15;;;;;;;10.45;69.02;99812.88;5273147;27;33425;-76
2021/04/19 05:59:06;;;;;;;4.57;3.25;;;;;;;10.49;69.16;99813.44;5273185;27;32846;-76
2021/04/19 06:01:38;;;;;;;3.53;3.23;;;;;;;10.50;69.47;99809.78;5287974;27;35279;-76
2021/04/19 06:04:29;;;;;;;6.03;4.43;;;;;;;10.24;70.70;99808.69;5291303;27;34846;-77
2021/04/19 06:07:20;;;;;;;4.10;3.70;;;;;;;10.53;69.26;99804.16;5290879;27;34165;-77
2021/04/19 06:10:10;;;;;;;3.45;2.92;;;;;;;10.61;69.53;99807.81;5291603;27;34673;-76
2021/04/19 06:12:45;;;;;;;4.57;3.25;;;;;;;10.68;69.87;99802.72;5255251;27;36352;-76
2021/04/19 06:15:15;;;;;;;1.58;1.45;;;;;;;10.81;68.05;99808.56;5291252;27;33973;-76
2021/04/19 06:17:46;;;;;;;2.90;2.45;;;;;;;10.62;68.85;99809.47;5272981;27;33920;-77
2021/04/19 06:20:15;;;;;;;3.62;2.95;;;;;;;10.89;67.97;99819.31;5273208;27;33565;-77
2021/04/19 06:22:44;;;;;;;3.45;2.97;;;;;;;10.84;68.85;99808.28;5290863;27;34742;-78
2021/04/19 06:25:12;;;;;;;5.97;2.37;;;;;;;11.01;68.14;99810.16;5272488;27;33152;-77
2021/04/19 06:27:41;;;;;;;4.30;3.15;;;;;;;11.16;67.76;99808.69;5291112;27;33365;-77
2021/04/19 06:30:14;;;;;;;4.45;3.47;;;;;;;11.46;66.57;99812.72;5272128;27;32835;-77
2021/04/19 06:32:44;;;;;;;7.93;5.60;;;;;;;11.11;68.82;99816.31;5290864;27;34609;-77
2021/04/19 06:35:13;;;;;;;3.87;2.50;;;;;;;11.31;67.32;99808.06;5254611;27;33107;-77
2021/04/19 06:37:49;;;;;;;3.22;2.90;;;;;;;11.06;68.33;99811.44;5310344;27;33829;-77
2021/04/19 06:40:18;;;;;;;3.70;3.30;;;;;;;10.84;69.59;99811.78;5272361;27;34961;-78
2021/04/19 06:42:48;;;;;;;6.70;4.03;;;;;;;11.19;68.29;99814.56;5291235;27;34978;-78
2021/04/19 06:45:16;;;;;;;5.28;3.78;;;;;;;11.34;67.49;99810.44;5291013;27;34611;-79
2021/04/19 06:47:46;;;;;;;4.18;3.05;;;;;;;11.14;67.77;99808.84;5273518;27;33675;-79
2021/04/19 06:50:14;;;;;;;;;;;;;;;10.92;67.95;99817.22;5273403;27;34950;-79
2021/04/19 06:52:48;;;;;;;3.55;3.25;;;;;;;10.94;69.02;99809.91;5292123;27;34856;-79
2021/04/19 06:55:20;;;;;;;5.05;3.03;;;;;;;10.87;69.05;99814.12;5255958;27;33114;-78
2021/04/19 06:57:52;;;;;;;3.87;2.25;;;;;;;11.04;67.25;99813.38;5292219;27;33757;-77
2021/04/19 07:00:22;;;;;;;5.72;3.03;;;;;;;10.97;68.92;99814.12;5311133;27;33594;-78
2021/04/19 07:03:02;;;;;;;2.10;1.98;;;;;;;11.13;66.92;99809.84;5311300;27;34803;-79
2021/04/19 07:05:33;;;;;;;3.10;2.90;;;;;;;10.61;69.29;99807.81;5291717;27;33979;-77
2021/04/19 07:08:11;;;;;;;2.50;2.12;;;;;;;11.04;67.76;99807.22;5273816;27;32976;-78
2021/04/19 07:10:41;;;;;;;3.92;3.22;;;;;;;10.96;67.69;99801.78;5290840;27;34127;-78
2021/04/19 07:13:10;;;;;;;2.78;1.70;;;;;;;10.75;69.71;99807.31;5273287;27;34578;-80
2021/04/19 07:15:45;;;;;;;6.10;3.08;;;;;;;11.13;69.59;99807.16;5274237;27;34023;-78
2021/04/19 07:18:13;;;;;;;2.80;2.10;;;;;;;10.82;70.24;99808.44;5291194;27;33955;-78
2021/04/19 07:20:43;;;;;;;2.83;2.15;;;;;;;10.83;69.13;99806.59;5308531;27;35180;-77
2021/04/19 07:23:14;;;;;;;3.75;1.67;;;;;;;10.98;69.47;99802.47;5311252;27;34683;-80
2021/04/19 07:25:44;;;;;;;3.20;2.78;;;;;;;11.09;70.43;99802.28;5273088;27;34669;-77
2021/04/19 07:28:13;;;;;;;1.85;1.75;;;;;;;11.52;68.64;99795.31;5310450;27;34179;-77
2021/04/19 07:30:44;;;;;;;2.42;2.22;;;;;;;11.68;67.29;99792.84;5290697;27;32991;-78
2021/04/19 07:33:28;;;;;;;2.55;2.08;;;;;;;11.35;67.42;99802.28;5289050;27;35307;-79
2021/04/19 07:35:56;;;;;;;2.58;1.50;;;;;;;11.46;66.78;99794.06;5271631;27;33250;-77
2021/04/19 07:38:33;;;;;;;2.33;2.10;;;;;;;11.71;64.93;99790.72;5272038;27;32819;-77
2021/04/19 07:41:02;;;;;;;1.25;1.15;;;;;;;11.69;64.31;99789.19;5273079;27;34448;-76
2021/04/19 07:43:36;;;;;;;1.37;1.12;;;;;;;11.56;65.35;99791.38;5254789;27;34047;-76
2021/04/19 07:46:15;;;;;;;2.22;1.27;;;;;;;11.58;66.76;99782.28;5274568;27;35174;-78
2021/04/19 07:48:48;;;;;;;6.07;2.37;;;;;;;11.25;66.68;99792.69;5291673;27;33535;-78
2021/04/19 07:51:25;;;;;;;1.55;1.45;;;;;;;11.30;66.34;99794.91;5310969;27;33380;-78
2021/04/19 07:54:10;;;;;;;4.47;1.55;;;;;;;11.27;66.87;99794.19;5291484;27;36048;-78
2021/04/19 07:56:39;;;;;;;3.70;2.50;;;;;;;11.41;67.43;99791.03;5272201;27;35980;-75
2021/04/19 07:59:20;;;;;;;1.90;1.35;;;;;;;11.88;65.66;99787.22;5292365;27;33484;-77
2021/04/19 08:02:12;;;;;;;2.03;1.70;;;;;;;11.74;67.89;99784.25;5306177;27;33878;-76
2021/04/19 08:04:49;;;;;;;1.83;1.73;;;;;;;12.36;65.44;99781.44;5311277;27;34936;-77
2021/04/19 08:07:18;;;;;;;1.80;1.30;;;;;;;12.52;60.69;99771.75;5290847;27;34633;-76
2021/04/19 08:09:56;;;;;;;2.37;2.15;;;;;;;12.18;62.15;99776.16;5290525;27;33249;-77
2021/04/19 08:15:17;;;;;;;2.10;1.30;;;;;;;12.27;66.25;99777.91;5265594;27;36121;-73
2021/04/19 08:17:44;;;;;;;2.28;2.08;;;;;;;12.10;67.48;99777.94;5228713;27;32684;-74
2021/04/19 08:20:23;;;;;;;1.83;1.70;;;;;;;12.67;61.22;99772.81;5249108;27;32873;-73
2021/04/19 08:22:50;;;;;;;3.80;2.00;;;;;;;12.75;62.21;99775.53;5248244;27;33669;-73
2021/04/19 08:25:20;;;;;;;1.95;1.50;;;;;;;12.52;63.55;99778.91;5228871;27;35617;-74
2021/04/19 08:28:00;;;;;;;3.15;2.95;;;;;;;12.25;66.21;99774.56;5247546;27;33648;-75
2021/04/19 08:30:29;;;;;;;3.87;2.67;;;;;;;12.30;66.42;99774.09;5245465;27;33183;-74
2021/04/19 08:32:57;;;;;;;1.50;1.40;;;;;;;12.63;63.02;99781.28;5268580;27;33481;-74
2021/04/19 08:35:26;;;;;;;2.17;1.52;;;;;;;12.99;62.01;99772.19;5246237;27;36335;-74
2021/04/19 08:37:56;;;;;;;1.05;1.00;;;;;;;12.62;65.09;99769.81;5248013;27;35041;-74
2021/04/19 08:40:25;;;;;;;1.95;1.17;;;;;;;12.60;61.94;99774.47;5248737;27;34906;-74
2021/04/19 08:42:56;;;;;;;1.48;0.98;;;;;;;12.70;61.16;99772.53;5249304;27;34655;-74
2021/04/19 08:45:25;;;;;;;0.95;0.88;;;;;;;12.79;59.07;99778.72;5244305;27;34931;-74
2021/04/19 08:47:52;;;;;;;1.73;1.55;;;;;;;12.65;62.84;99777.47;5229782;27;34458;-73
2021/04/19 08:50:25;;;;;;;1.83;1.33;;;;;;;12.76;65.11;99773.72;5248130;27;33190;-73
2021/04/19 08:52:54;;;;;;;0.80;0.77;;;;;;;12.51;63.07;99783.41;5267706;27;33733;-73
2021/04/19 08:55:23;;;;;;;0.70;0.70;;;;;;;12.75;61.75;99780.06;5247367;27;35241;-73
2021/04/19 08:57:51;;;;;;;1.75;1.23;;;;;;;12.90;64.19;99773.13;5248843;27;34234;-73
2021/04/19 09:00:23;;;;;;;1.62;1.15;;;;;;;13.13;62.25;99771.59;5247886;27;33176;-73
2021/04/19 09:02:50;;;;;;;1.55;1.45;;;;;;;13.60;61.44;99773.56;5247924;27;33382;-73
2021/04/19 09:05:19;;;;;;;1.85;1.75;;;;;;;13.78;61.90;99776.12;5267259;27;34671;-73
2021/04/19 09:07:49;;;;;;;2.42;1.58;;;;;;;13.31;61.94;99770.47;5267800;27;34713;-72
2021/04/19 09:10:18;;;;;;;1.55;1.02;;;;;;;13.56;61.10;99768.72;5247843;27;33112;-73
2021/04/19 09:12:47;;;;;;;1.83;1.00;;;;;;;13.47;59.89;99767.88;5229422;27;32201;-73
2021/04/19 09:15:16;;;;;;;;;;;;;;;13.48;58.98;99769.53;5260953;27;34725;-73
2021/04/19 09:18:03;;;;;;;1.17;1.15;;;;;;;13.47;58.19;99772.37;5287120;27;35369;-73
2021/04/19 09:20:35;;;;;;;1.23;1.20;;;;;;;13.50;57.67;99767.53;5271721;27;32651;-74
2021/04/19 09:23:26;;;;;;;1.17;0.90;;;;;;;13.24;59.53;99766.78;5286218;27;34389;-73
2021/04/19 09:25:55;;;;;;;0.82;0.82;;;;;;;13.09;63.29;99772.91;5289489;27;35655;-73
2021/04/19 09:28:41;;;;;;;3.37;1.20;;;;;;;12.81;61.32;99774.06;5269130;27;34238;-73
2021/04/19 09:31:13;;;;;;;3.62;1.70;;;;;;;13.31;62.28;99781.16;5267587;27;33617;-73
2021/04/19 09:33:42;;;;;;;2.22;1.55;;;;;;;13.35;61.18;99779.00;5287169;27;34347;-73
2021/04/19 09:36:10;;;;;;;1.95;1.55;;;;;;;13.26;62.85;99774.63;5286140;27;34782;-73
2021/04/19 09:38:40;;;;;;;1.83;1.08;;;;;;;13.61;59.36;99775.22;5286718;27;33999;-73
2021/04/19 09:41:09;;;;;;;1.62;1.52;;;;;;;14.07;56.73;99777.31;5288988;27;33249;-73
2021/04/19 09:43:41;;;;;;;1.30;1.20;;;;;;;13.13;61.45;99779.59;5287334;27;33809;-73
2021/04/19 09:46:15;;;;;;;1.08;0.75;;;;;;;13.22;60.28;99775.97;5286487;27;34858;-73
2021/04/19 09:48:46;;;;;;;1.42;1.33;;;;;;;12.98;62.03;99775.84;5288532;27;34071;-73
2021/04/19 09:51:20;;;;;;;0.93;0.93;;;;;;;12.99;58.76;99777.53;5285284;27;33803;-72
2021/04/19 09:53:51;;;;;;;0.82;0.73;;;;;;;12.66;62.69;99778.34;5284714;27;34763;-72
2021/04/19 09:56:24;;;;;;;1.00;1.00;;;;;;;12.72;63.86;99783.03;5288093;27;34839;-72
2021/04/19 09:58:52;;;;;;;1.55;1.45;;;;;;;12.78;60.93;99774.38;5286445;27;35075;-72
2021/04/19 10:01:21;;;;;;;1.50;0.90;;;;;;;12.77;60.29;99773.53;5286069;27;33238;-72
2021/04/19 10:03:51;;;;;;;1.02;1.02;;;;;;;12.29;63.09;99765.22;5286651;27;34377;-72
2021/04/19 10:06:25;;;;;;;0.82;0.82;;;;;;;12.58;63.83;99771.09;5251604;27;35413;-73
2021/04/19 10:08:54;;;;;;;1.02;1.02;;;;;;;12.70;62.12;99766.34;5286379;27;33085;-74
2021/04/19 10:11:23;;;;;;;1.02;0.82;;;;;;;12.65;62.89;99761.47;5268569;27;34227;-73
2021/04/19 10:13:50;;;;;;;2.03;1.92;;;;;;;12.77;65.56;99762.88;5286644;27;33019;-73
2021/04/19 10:16:18;;;;;;;1.40;1.23;;;;;;;13.08;60.88;99752.53;5288624;27;36322;-73
2021/04/19 10:18:52;;;;;;;2.05;1.35;;;;;;;13.06;62.85;99751.84;5250272;27;33379;-73
2021/04/19 10:21:28;;;;;;;2.28;1.42;;;;;;;13.35;59.76;99761.16;5286733;27;33504;-73
2021/04/19 10:23:57;;;;;;;2.95;1.70;;;;;;;13.52;60.52;99754.00;5286888;27;33645;-75
2021/04/19 10:26:37;;;;;;;1.42;0.90;;;;;;;13.67;59.05;99758.56;5287105;27;34258;-74
2021/04/19 10:29:18;;;;;;;18.05;1.83;;;;;;;13.61;60.70;99761.06;5287407;27;35037;-73
2021/04/19 10:31:57;;;;;;;2.70;2.10;;;;;;;14.02;58.77;99755.59;5286784;27;33822;-73
2021/04/19 10:34:30;;;;;;;1.08;0.85;;;;;;;13.83;59.01;99755.91;5285967;27;34892;-74
2021/04/19 10:37:00;;;;;;;1.65;1.27;;;;;;;13.50;60.17;99758.69;5270003;27;34649;-74
2021/04/19 10:39:31;;;;;;;3.00;1.85;;;;;;;13.78;58.99;99754.72;5290653;27;35318;-74
2021/04/19 10:42:06;;;;;;;3.12;1.92;;;;;;;13.30;60.94;99750.09;5290178;27;34003;-74
2021/04/19 10:44:35;;;;;;;1.67;1.17;;;;;;;13.54;61.28;99746.66;5288097;27;34245;-75
2021/04/19 10:47:08;;;;;;;1.92;1.15;;;;;;;13.64;60.17;99750.03;5287647;27;34905;-75
2021/04/19 10:49:41;;;;;;;3.35;1.65;;;;;;;13.33;60.33;99749.78;5286863;27;34168;-74
2021/04/19 10:52:11;;;;;;;1.30;1.20;;;;;;;13.36;58.11;99751.28;5287843;27;33808;-74
2021/04/19 10:54:41;;;;;;;1.40;1.23;;;;;;;13.35;58.85;99750.47;5287855;27;34497;-74
2021/04/19 10:57:25;;;;;;;1.20;1.20;;;;;;;12.83;62.12;99748.06;5287375;27;34232;-74
2021/04/19 10:59:54;;;;;;;5.25;1.30;;;;;;;13.18;60.18;99746.06;5289526;27;34269;-75
2021/04/19 11:02:22;;;;;;;3.10;1.33;;;;;;;13.29;60.39;99743.09;5287721;27;33529;-75
2021/04/19 11:04:50;;;;;;;1.80;1.25;;;;;;;12.73;61.48;99740.16;5289015;27;33768;-73
2021/04/19 11:07:27;;;;;;;1.42;1.33;;;;;;;12.95;61.11;99741.47;5268734;27;34991;-73
2021/04/19 11:10:13;;;;;;;1.45;0.60;;;;;;;13.14;59.92;99739.34;5289344;27;34980;-74
2021/04/19 11:12:52;;;;;;;1.55;1.00;;;;;;;12.96;59.83;99735.94;5289085;27;34061;-74
2021/04/19 11:15:23;;;;;;;1.25;1.05;;;;;;;13.21;60.40;99736.91;5289307;27;33838;-74
2021/04/19 11:17:50;;;;;;;1.90;1.52;;;;;;;12.37;61.60;99741.28;5286775;27;35131;-73
2021/04/19 11:20:28;;;;;;;1.23;0.60;;;;;;;12.47;61.32;99746.53;5288471;27;34657;-73
2021/04/19 11:22:59;;;;;;;2.58;1.77;;;;;;;12.31;62.82;99741.06;5287391;27;33983;-72
2021/04/19 11:25:29;;;;;;;1.17;0.57;;;;;;;12.57;61.61;99750.75;5287916;27;32996;-73
2021/04/19 11:28:15;;;;;;;1.30;1.20;;;;;;;12.13;64.09;99743.78;5287033;27;35992;-74
2021/04/19 11:30:42;;;;;;;1.55;1.42;;;;;;;12.12;64.77;99746.59;5289781;27;34763;-74
2021/04/19 11:33:21;;;;;;;2.12;1.92;;;;;;;12.07;64.94;99746.22;5270225;27;31882;-75
2021/04/19 11:35:51;;;;;;;1.23;1.12;;;;;;;12.24;64.00;99743.53;5287924;27;33535;-74
2021/04/19 11:38:21;;;;;;;1.60;0.85;;;;;;;12.38;63.05;99742.13;5289325;27;34652;-74
2021/04/19 11:40:59;;;;;;;1.25;1.15;;;;;;;12.53;61.99;99733.38;5287742;27;33932;-74
2021/04/19 11:43:35;;;;;;;0.98;0.93;;;;;;;12.58;59.43;99732.91;5289134;27;33027;-74
2021/04/19 11:46:05;;;;;;;1.77;1.27;;;;;;;12.51;60.72;99739.88;5286375;27;33418;-72
2021/04/19 11:48:36;;;;;;;3.47;3.12;;;;;;;12.38;60.88;99734.13;5288922;27;35450;-74
2021/04/19 11:51:04;;;;;;;1.30;1.23;;;;;;;12.40;62.00;99734.81;5289339;27;33922;-74
2021/04/19 11:53:33;;;;;;;2.40;1.55;;;;;;;12.68;59.48;99734.44;5286774;27;32906;-74
2021/04/19 11:56:02;;;;;;;1.42;1.33;;;;;;;12.67;61.06;99731.97;5286896;27;33314;-74
2021/04/19 11:58:41;;;;;;;4.45;1.67;;;;;;;12.66;60.41;99735.63;5269709;27;34626;-75